Time;durP1;ratioP1;P1;durP2;ratioP2;P2;SDS_P1;SDS_P2;PMS_P1;PMS_P2;Temp;Humidity;BMP_temperature;BMP_pressure;BME280_temperature;BME280_humidity;BME280_pressure;Samples;Min_cycle;Max_cycle;Signal;HPM_P1;HPM_P2
2021/07/13 00:01:11;;;;;;;6.70;6.10;;;;;;;22.37;67.36;99694.81;5070796;28;20476;-80
2021/07/13 00:03:37;;;;;;;6.97;6.27;;;;;;;22.46;67.07;99692.56;5079194;28;20889;-81
2021/07/13 00:06:04;;;;;;;5.97;5.40;;;;;;;22.47;67.10;99694.25;5063801;28;20497;-81
2021/07/13 00:08:31;;;;;;;6.17;5.67;;;;;;;22.47;67.34;99699.69;5065079;28;20505;-82
2021/07/13 00:10:57;;;;;;;6.50;5.43;;;;;;;22.49;67.36;99694.03;5084074;28;20472;-81
2021/07/13 00:13:24;;;;;;;7.40;6.37;;;;;;;22.49;67.43;99691.31;5081234;28;20500;-82
2021/07/13 00:15:51;;;;;;;6.90;6.30;;;;;;;22.52;67.02;99690.84;5081207;28;20533;-82
2021/07/13 00:18:19;;;;;;;6.10;5.50;;;;;;;22.41;67.50;99692.47;5084014;28;20440;-81
2021/07/13 00:20:46;;;;;;;6.20;5.57;;;;;;;22.44;67.38;99689.25;5074306;28;21072;-81
2021/07/13 00:23:12;;;;;;;6.90;6.13;;;;;;;22.50;66.96;99693.78;5084270;28;20472;-81
2021/07/13 00:25:39;;;;;;;8.63;6.37;;;;;;;22.34;67.77;99702.59;5074979;28;20480;-81
2021/07/13 00:28:06;;;;;;;6.53;6.00;;;;;;;22.21;67.97;99695.44;5084306;28;20552;-82
2021/07/13 00:30:33;;;;;;;6.87;5.67;;;;;;;22.36;67.46;99686.88;5067454;28;20473;-82
2021/07/13 00:33:00;;;;;;;8.00;6.50;;;;;;;22.23;67.91;99692.47;5066484;28;20536;-82
2021/07/13 00:35:28;;;;;;;7.30;6.60;;;;;;;22.06;68.56;99687.66;5082668;28;20487;-82
2021/07/13 00:37:54;;;;;;;6.73;6.03;;;;;;;21.99;68.91;99684.22;5082407;28;20488;-82
2021/07/13 00:40:22;;;;;;;7.10;6.50;;;;;;;21.98;69.17;99688.00;5062505;28;20457;-81
2021/07/13 00:42:50;;;;;;;8.40;6.17;;;;;;;22.08;68.95;99680.13;5063908;28;20461;-82
2021/07/13 00:45:17;;;;;;;7.13;6.53;;;;;;;22.18;68.15;99683.09;5080587;28;20462;-81
2021/07/13 00:47:46;;;;;;;7.97;6.40;;;;;;;22.07;68.41;99683.91;5083139;28;20524;-82
2021/07/13 00:50:13;;;;;;;7.23;6.63;;;;;;;21.98;68.94;99680.66;5082219;28;20524;-81
2021/07/13 00:52:41;;;;;;;7.50;6.60;;;;;;;21.85;69.09;99674.56;5065968;28;20454;-81
2021/07/13 00:55:09;;;;;;;7.37;6.40;;;;;;;21.75;69.61;99685.97;5064840;28;20441;-81
2021/07/13 00:57:37;;;;;;;7.40;6.70;;;;;;;21.71;69.72;99674.72;5063506;28;20481;-81
2021/07/13 01:00:05;;;;;;;7.17;6.43;;;;;;;21.76;69.44;99682.19;5078797;28;20480;-82
2021/07/13 01:02:32;;;;;;;8.10;7.40;;;;;;;21.75;69.46;99680.53;5064206;28;20561;-81
2021/07/13 01:05:00;;;;;;;8.00;7.20;;;;;;;21.74;69.44;99677.00;5082345;28;20983;-81
2021/07/13 01:07:35;;;;;;;7.50;6.50;;;;;;;21.85;69.29;99677.28;5082325;28;20483;-81
2021/07/13 01:10:06;;;;;;;7.47;6.80;;;;;;;21.84;69.26;99675.59;5063685;28;20475;-82
2021/07/13 01:12:42;;;;;;;6.50;5.90;;;;;;;21.90;69.14;99678.25;5080264;28;21041;-82
2021/07/13 01:15:10;;;;;;;7.23;6.53;;;;;;;21.92;68.98;99676.13;5074156;28;20966;-82
2021/07/13 01:17:39;;;;;;;7.63;6.80;;;;;;;21.94;68.53;99679.47;5066186;28;20516;-82
2021/07/13 01:20:32;;;;;;;10.17;7.67;;;;;;;21.86;68.63;99678.94;5082094;28;20540;-81
2021/07/13 01:23:05;;;;;;;7.93;7.23;;;;;;;21.74;68.72;99676.16;5078979;28;20472;-81
2021/07/13 01:25:40;;;;;;;7.70;7.00;;;;;;;21.66;69.00;99676.47;5061716;28;20488;-82
2021/07/13 01:28:10;;;;;;;6.77;6.07;;;;;;;21.65;68.86;99666.63;5063584;28;20939;-81
2021/07/13 01:30:42;;;;;;;6.87;6.23;;;;;;;21.59;68.99;99665.66;5061675;28;20556;-81
2021/07/13 01:33:12;;;;;;;7.40;6.70;;;;;;;21.56;69.14;99660.66;5081767;28;20472;-81
2021/07/13 01:35:43;;;;;;;8.07;7.37;;;;;;;21.53;69.17;99655.69;5081930;28;21147;-82
2021/07/13 01:38:13;;;;;;;7.90;7.07;;;;;;;21.51;69.25;99652.34;5043104;28;20450;-82
2021/07/13 01:40:41;;;;;;;6.80;6.20;;;;;;;21.53;69.13;99652.97;5041938;28;20502;-82
2021/07/13 01:43:09;;;;;;;8.93;7.27;;;;;;;21.50;69.10;99654.25;5054252;28;20473;-82
2021/07/13 01:45:36;;;;;;;7.77;6.37;;;;;;;21.41;69.03;99652.88;5069017;28;20497;-82
2021/07/13 01:48:03;;;;;;;7.43;6.73;;;;;;;21.33;69.47;99655.88;5042630;28;21050;-81
2021/07/13 01:50:30;;;;;;;7.33;6.63;;;;;;;21.24;69.71;99653.44;5054943;28;20476;-81
2021/07/13 01:52:57;;;;;;;7.20;6.33;;;;;;;21.20;69.92;99654.97;5074242;28;20536;-82
2021/07/13 01:55:24;;;;;;;6.83;6.23;;;;;;;21.21;70.03;99653.91;5086138;28;20460;-81
2021/07/13 01:57:51;;;;;;;6.83;6.23;;;;;;;21.12;70.17;99655.25;5073862;28;20449;-81
2021/07/13 02:00:19;;;;;;;7.70;7.00;;;;;;;20.95;71.44;99643.28;5071802;28;20453;-81
2021/07/13 02:02:47;;;;;;;8.47;6.47;;;;;;;20.71;72.80;99653.97;5082449;28;20484;-81
2021/07/13 02:05:14;;;;;;;8.23;7.53;;;;;;;20.77;72.33;99641.38;5082218;28;20428;-82
2021/07/13 02:07:43;;;;;;;8.03;7.13;;;;;;;20.93;71.49;99639.97;5068703;28;20951;-82
2021/07/13 02:10:11;;;;;;;7.37;6.43;;;;;;;21.00;71.34;99649.72;5062260;28;20449;-82
2021/07/13 02:12:39;;;;;;;8.30;7.50;;;;;;;21.02;70.99;99644.91;5062851;28;20432;-81
2021/07/13 02:15:07;;;;;;;7.20;6.60;;;;;;;20.94;71.26;99649.81;5068237;28;20536;-82
2021/07/13 02:17:35;;;;;;;8.80;8.00;;;;;;;20.81;71.61;99643.41;5081786;28;20946;-81
2021/07/13 02:20:04;;;;;;;9.17;6.80;;;;;;;20.78;71.42;99638.44;5067260;28;20449;-81
2021/07/13 02:22:31;;;;;;;7.83;7.10;;;;;;;20.68;71.68;99635.41;5077673;28;20559;-81
2021/07/13 02:24:57;;;;;;;7.53;6.90;;;;;;;20.66;71.87;99640.22;5082315;28;20551;-82
2021/07/13 02:27:27;;;;;;;7.50;6.50;;;;;;;20.64;71.77;99634.16;5063107;28;20487;-81
2021/07/13 02:29:57;;;;;;;7.83;7.13;;;;;;;20.55;72.23;99633.56;5066220;28;20457;-81
2021/07/13 02:32:26;;;;;;;7.07;6.43;;;;;;;20.52;72.32;99636.75;5074204;28;20563;-82
2021/07/13 02:34:54;;;;;;;8.30;7.37;;;;;;;20.43;72.26;99636.19;5082004;28;20448;-81
2021/07/13 02:37:22;;;;;;;8.17;7.30;;;;;;;20.43;72.58;99643.47;5078604;28;21429;-81
2021/07/13 02:39:49;;;;;;;10.50;8.70;;;;;;;20.40;72.80;99643.94;5062334;28;20464;-81
2021/07/13 02:42:16;;;;;;;8.47;7.70;;;;;;;20.39;73.19;99650.41;5045139;28;20493;-81
2021/07/13 02:44:43;;;;;;;8.33;7.30;;;;;;;20.45;72.80;99646.81;5060592;28;20464;-80
2021/07/13 02:47:11;;;;;;;10.27;9.27;;;;;;;20.35;73.61;99651.91;5075560;28;20547;-80
2021/07/13 02:49:45;;;;;;;9.53;8.47;;;;;;;20.48;73.06;99646.38;5079994;28;20450;-80
2021/07/13 02:52:15;;;;;;;8.23;7.53;;;;;;;20.52;72.99;99650.31;5065324;28;20478;-80
2021/07/13 02:54:42;;;;;;;8.23;7.53;;;;;;;20.64;72.22;99635.00;5066303;28;20449;-80
2021/07/13 02:57:09;;;;;;;8.90;8.10;;;;;;;20.60;72.02;99635.63;5064984;28;20560;-80
2021/07/13 02:59:37;;;;;;;8.90;8.00;;;;;;;20.58;72.30;99629.59;5072737;28;20480;-78
2021/07/13 03:02:04;;;;;;;13.67;8.23;;;;;;;20.55;72.52;99636.28;5083959;28;20484;-81
2021/07/13 03:04:31;;;;;;;9.10;7.30;;;;;;;20.62;72.11;99642.56;5084981;28;20504;-81
2021/07/13 03:06:59;;;;;;;7.80;7.03;;;;;;;20.73;71.86;99637.44;5084455;28;20967;-81
2021/07/13 03:09:27;;;;;;;9.23;7.70;;;;;;;20.81;71.67;99637.16;5072702;28;20460;-80
2021/07/13 03:11:54;;;;;;;8.43;7.73;;;;;;;20.86;71.36;99632.69;5064791;28;20579;-80
2021/07/13 03:14:20;;;;;;;11.27;7.87;;;;;;;20.97;71.21;99631.16;5076124;28;20500;-81
2021/07/13 03:16:48;;;;;;;8.20;7.50;;;;;;;21.09;70.38;99630.41;5074728;28;20888;-81
2021/07/13 03:19:15;;;;;;;8.47;7.20;;;;;;;21.17;70.55;99630.13;5079460;28;20485;-82
2021/07/13 03:21:45;;;;;;;7.17;6.43;;;;;;;21.16;70.32;99629.31;5079584;28;20559;-78
2021/07/13 03:24:13;;;;;;;7.80;6.93;;;;;;;21.31;69.81;99625.38;5074343;28;20468;-78
2021/07/13 03:26:43;;;;;;;8.40;7.70;;;;;;;21.28;69.75;99623.91;5068766;28;20484;-80
2021/07/13 03:29:12;;;;;;;6.67;6.07;;;;;;;21.34;70.23;99622.22;5066588;28;20486;-81
2021/07/13 03:31:39;;;;;;;8.27;6.80;;;;;;;21.32;70.16;99622.44;5082474;28;20563;-82
2021/07/13 03:34:06;;;;;;;9.90;7.63;;;;;;;21.36;69.78;99618.19;5070242;28;20529;-82
2021/07/13 03:36:34;;;;;;;8.30;7.20;;;;;;;21.52;69.52;99622.22;5069916;28;20575;-81
2021/07/13 03:39:01;;;;;;;9.10;7.63;;;;;;;21.52;69.31;99622.22;5085418;28;20436;-82
2021/07/13 03:41:29;;;;;;;7.80;7.10;;;;;;;21.59;68.91;99622.13;5082479;28;20500;-81
2021/07/13 03:44:00;;;;;;;9.00;6.33;;;;;;;21.74;68.32;99628.00;5068193;28;20474;-79
2021/07/13 03:46:26;;;;;;;10.13;7.37;;;;;;;22.06;67.24;99616.06;5064990;28;20512;-79
2021/07/13 03:48:53;;;;;;;9.23;7.10;;;;;;;21.84;67.66;99622.03;5066594;28;20469;-80
2021/07/13 03:51:26;;;;;;;7.53;6.50;;;;;;;21.91;67.72;99620.06;5082583;28;20539;-79
2021/07/13 03:53:52;;;;;;;10.80;7.40;;;;;;;21.96;67.59;99622.91;5083912;28;20524;-80
2021/07/13 03:56:19;;;;;;;7.50;6.77;;;;;;;21.96;67.60;99622.06;5065126;28;20497;-81
2021/07/13 03:58:46;;;;;;;7.93;7.13;;;;;;;21.88;67.99;99625.94;5076065;28;20441;-80
2021/07/13 04:01:13;;;;;;;9.70;6.90;;;;;;;21.83;68.33;99631.25;5082405;28;20476;-80
2021/07/13 04:03:40;;;;;;;7.27;6.57;;;;;;;21.92;67.93;99627.13;5083867;28;20563;-80
2021/07/13 04:06:08;;;;;;;8.43;7.03;;;;;;;21.77;68.59;99624.03;5083608;28;20476;-80
2021/07/13 04:08:35;;;;;;;7.33;6.63;;;;;;;21.73;69.02;99634.50;5083243;28;20480;-80
2021/07/13 04:11:02;;;;;;;11.67;7.60;;;;;;;21.85;68.52;99629.13;5074250;28;20509;-81
2021/07/13 04:13:28;;;;;;;7.60;7.00;;;;;;;21.87;68.54;99639.78;5066324;28;20461;-81
2021/07/13 04:15:55;;;;;;;8.17;7.37;;;;;;;21.77;68.61;99634.91;5072321;28;20564;-80
2021/07/13 04:18:23;;;;;;;11.33;7.70;;;;;;;21.72;68.86;99632.84;5068156;28;20488;-81
2021/07/13 04:20:50;;;;;;;8.47;7.67;;;;;;;21.68;69.55;99637.06;5081655;28;20551;-82
2021/07/13 04:23:17;;;;;;;8.47;7.67;;;;;;;21.73;69.22;99641.84;5074332;28;20488;-80
2021/07/13 04:25:43;;;;;;;8.30;6.97;;;;;;;21.74;69.36;99635.34;5055695;28;20986;-80
2021/07/13 04:28:10;;;;;;;7.10;6.50;;;;;;;21.90;68.98;99640.16;5059174;28;20548;-79
2021/07/13 04:30:37;;;;;;;9.23;6.40;;;;;;;21.87;69.13;99637.06;5063619;28;20527;-80
2021/07/13 04:33:04;;;;;;;7.37;6.67;;;;;;;21.75;69.59;99635.13;5066096;28;20949;-80
2021/07/13 04:35:32;;;;;;;7.67;6.97;;;;;;;21.94;69.40;99635.94;5080227;28;21088;-79
2021/07/13 04:37:58;;;;;;;8.57;7.77;;;;;;;21.90;69.52;99631.97;5080546;28;20480;-80
2021/07/13 04:40:25;;;;;;;8.90;8.03;;;;;;;21.91;69.09;99627.38;5082703;28;20482;-80
2021/07/13 04:42:52;;;;;;;10.73;8.33;;;;;;;21.90;69.00;99633.88;5076900;28;20469;-80
2021/07/13 04:45:19;;;;;;;9.23;8.33;;;;;;;21.82;69.29;99637.72;5063051;28;20466;-80
2021/07/13 04:47:46;;;;;;;9.13;8.10;;;;;;;21.92;68.67;99632.56;5078739;28;20889;-79
2021/07/13 04:50:13;;;;;;;10.77;8.80;;;;;;;21.94;68.75;99640.50;5062914;28;20453;-80
2021/07/13 04:52:41;;;;;;;8.33;7.50;;;;;;;21.80;68.69;99634.41;5082359;28;20555;-79
2021/07/13 04:55:08;;;;;;;10.10;9.13;;;;;;;21.85;68.78;99628.28;5077948;28;20520;-80
2021/07/13 04:57:35;;;;;;;11.33;8.33;;;;;;;21.90;68.28;99634.69;5061333;28;20528;-80
2021/07/13 05:00:02;;;;;;;11.53;9.40;;;;;;;21.99;67.98;99630.63;5067014;28;20445;-77
2021/07/13 05:02:28;;;;;;;11.93;9.80;;;;;;;22.03;68.00;99621.97;5081005;28;20515;-77
2021/07/13 05:04:55;;;;;;;10.90;9.80;;;;;;;22.13;67.62;99633.97;5079722;28;20563;-78
2021/07/13 05:07:23;;;;;;;10.93;9.83;;;;;;;22.21;67.25;99634.72;5081624;28;20784;-79
2021/07/13 05:09:51;;;;;;;12.50;10.30;;;;;;;22.24;66.71;99631.50;5063154;28;20449;-78
2021/07/13 05:12:17;;;;;;;14.67;10.13;;;;;;;22.26;66.74;99632.94;5061265;28;20488;-79
2021/07/13 05:14:44;;;;;;;13.37;10.83;;;;;;;22.15;66.63;99634.56;5076439;28;20512;-79
2021/07/13 05:17:12;;;;;;;13.03;9.50;;;;;;;22.24;66.68;99623.34;5079060;28;20468;-78
2021/07/13 05:19:39;;;;;;;12.80;10.93;;;;;;;22.37;66.40;99629.44;5061066;28;20430;-78
2021/07/13 05:22:08;;;;;;;14.53;10.40;;;;;;;22.43;66.25;99629.56;5061397;28;20954;-79
2021/07/13 05:24:35;;;;;;;16.33;11.77;;;;;;;22.55;65.26;99623.09;5058455;28;20862;-79
2021/07/13 05:27:04;;;;;;;15.87;10.40;;;;;;;22.54;65.28;99626.88;5063306;28;20470;-79
2021/07/13 05:29:32;;;;;;;11.87;10.00;;;;;;;22.40;65.77;99630.88;5062041;28;20921;-79
2021/07/13 05:31:59;;;;;;;15.90;11.50;;;;;;;22.35;65.82;99625.31;5054872;28;20481;-79
2021/07/13 05:34:25;;;;;;;12.53;11.23;;;;;;;22.35;65.69;99623.41;5041964;28;20494;-79
2021/07/13 05:36:52;;;;;;;14.10;11.93;;;;;;;22.22;66.58;99620.00;5058908;28;20568;-79
2021/07/13 05:39:18;;;;;;;13.20;11.57;;;;;;;22.15;66.59;99622.84;5060298;28;20533;-79
2021/07/13 05:41:45;;;;;;;13.60;12.20;;;;;;;22.10;67.14;99626.28;5077502;28;20464;-78
2021/07/13 05:44:13;;;;;;;15.80;13.50;;;;;;;22.09;67.43;99621.06;5081908;28;20475;-79
2021/07/13 05:46:39;;;;;;;12.40;11.10;;;;;;;22.17;67.54;99618.00;5078021;28;20531;-81
2021/07/13 05:49:06;;;;;;;12.90;11.60;;;;;;;22.21;67.63;99618.38;5059295;28;20452;-78
2021/07/13 05:51:33;;;;;;;14.10;12.60;;;;;;;22.29;67.38;99616.19;5061446;28;20496;-76
2021/07/13 05:53:59;;;;;;;14.33;11.97;;;;;;;22.27;67.69;99618.31;5063103;28;20460;-76
2021/07/13 05:56:26;;;;;;;13.07;11.33;;;;;;;22.28;67.81;99627.31;5079847;28;20957;-75
2021/07/13 05:58:53;;;;;;;13.97;11.97;;;;;;;22.51;67.29;99621.88;5062357;28;20481;-76
2021/07/13 06:01:21;;;;;;;13.50;12.10;;;;;;;22.71;66.68;99626.19;5054380;28;20484;-76
2021/07/13 06:03:47;;;;;;;12.33;11.10;;;;;;;22.94;66.18;99626.19;5060309;28;20974;-76
2021/07/13 06:06:14;;;;;;;11.23;10.10;;;;;;;22.98;66.17;99626.53;5059109;28;20496;-76
2021/07/13 06:08:41;;;;;;;14.30;11.80;;;;;;;23.11;65.13;99630.97;5060010;28;20479;-76
2021/07/13 06:11:07;;;;;;;12.97;11.63;;;;;;;23.06;65.42;99628.13;5058761;28;21059;-76
2021/07/13 06:13:34;;;;;;;12.57;11.13;;;;;;;23.08;65.62;99629.53;5060331;28;20489;-75
2021/07/13 06:16:00;;;;;;;13.20;11.90;;;;;;;22.95;65.93;99640.66;5060636;28;20496;-75
2021/07/13 06:18:28;;;;;;;12.53;11.40;;;;;;;22.86;66.22;99637.47;5061909;28;20509;-76
2021/07/13 06:20:55;;;;;;;15.07;13.60;;;;;;;22.65;66.81;99644.28;5062833;28;20921;-75
2021/07/13 06:23:22;;;;;;;14.43;12.93;;;;;;;22.55;67.32;99642.16;5063991;28;20471;-76
2021/07/13 06:25:48;;;;;;;21.83;14.07;;;;;;;22.69;67.28;99644.66;5059814;28;20508;-76
2021/07/13 06:28:15;;;;;;;15.00;13.60;;;;;;;22.74;67.56;99648.34;5063196;28;20496;-76
2021/07/13 06:30:42;;;;;;;14.93;13.33;;;;;;;22.73;67.18;99660.31;5062451;28;20477;-76
2021/07/13 06:33:08;;;;;;;14.23;12.70;;;;;;;22.75;67.21;99663.63;5062380;28;20448;-76
2021/07/13 06:35:36;;;;;;;15.43;13.30;;;;;;;22.45;68.42;99650.06;5063072;28;20528;-75
2021/07/13 06:38:05;;;;;;;15.77;13.27;;;;;;;22.38;69.06;99650.19;5062475;28;20544;-76
2021/07/13 06:40:32;;;;;;;16.27;14.57;;;;;;;22.60;68.03;99665.97;5061777;28;20476;-76
2021/07/13 06:42:58;;;;;;;15.80;13.93;;;;;;;22.73;67.67;99665.75;5063686;28;20591;-76
2021/07/13 06:45:25;;;;;;;18.17;14.70;;;;;;;22.80;66.99;99657.47;5062254;28;20540;-75
2021/07/13 06:47:54;;;;;;;16.97;14.87;;;;;;;22.87;67.40;99665.53;5061544;28;21031;-75
2021/07/13 06:50:22;;;;;;;17.57;15.87;;;;;;;22.81;67.65;99661.03;5061986;28;20461;-76
2021/07/13 06:52:50;;;;;;;16.93;15.23;;;;;;;22.79;68.00;99671.34;5063272;28;20449;-77
2021/07/13 06:55:17;;;;;;;15.67;14.30;;;;;;;22.86;67.62;99670.16;5061118;28;20469;-76
2021/07/13 06:57:43;;;;;;;16.63;14.80;;;;;;;22.90;67.85;99665.06;5062343;28;20473;-76
2021/07/13 07:00:12;;;;;;;16.40;14.37;;;;;;;22.83;67.91;99664.34;5063558;28;20535;-75
2021/07/13 07:02:38;;;;;;;17.90;15.20;;;;;;;22.84;68.21;99666.81;5063495;28;20487;-76
2021/07/13 07:05:06;;;;;;;15.73;14.33;;;;;;;22.71;68.85;99667.88;5060677;28;20496;-75
2021/07/13 07:07:32;;;;;;;17.70;15.87;;;;;;;22.71;69.30;99672.53;5062377;28;21180;-76
2021/07/13 07:10:00;;;;;;;16.60;14.83;;;;;;;22.91;68.51;99667.56;5060648;28;20528;-75
2021/07/13 07:12:27;;;;;;;18.80;16.60;;;;;;;22.90;68.49;99659.63;5061337;28;20509;-76
2021/07/13 07:14:54;;;;;;;19.80;14.80;;;;;;;23.16;68.03;99662.94;5061708;28;20977;-76
2021/07/13 07:17:20;;;;;;;18.90;15.87;;;;;;;23.38;67.28;99665.91;5060617;28;20508;-79
2021/07/13 07:19:47;;;;;;;17.47;14.40;;;;;;;23.50;66.77;99655.81;5062786;28;20484;-78
2021/07/13 07:22:13;;;;;;;17.20;15.07;;;;;;;23.55;66.73;99661.38;5062228;28;20512;-80
2021/07/13 07:24:40;;;;;;;17.57;14.93;;;;;;;23.54;67.16;99665.19;5059729;28;20540;-79
2021/07/13 07:27:08;;;;;;;17.43;15.43;;;;;;;23.52;67.19;99661.84;5059849;28;20527;-78
2021/07/13 07:29:34;;;;;;;15.87;14.27;;;;;;;23.50;67.29;99664.84;5062066;28;20461;-78
2021/07/13 07:32:01;;;;;;;19.90;13.60;;;;;;;23.43;67.45;99666.03;5060158;28;20508;-80
2021/07/13 07:34:28;;;;;;;20.03;15.80;;;;;;;23.42;67.58;99665.19;5062101;28;20503;-80
2021/07/13 07:36:54;;;;;;;18.50;15.70;;;;;;;23.39;67.89;99662.13;5061295;28;20493;-79
2021/07/13 07:39:21;;;;;;;18.50;15.70;;;;;;;23.25;67.91;99667.00;5060410;28;20453;-79
2021/07/13 07:41:48;;;;;;;19.40;16.20;;;;;;;23.22;68.24;99668.28;5060888;28;20473;-80
2021/07/13 07:44:16;;;;;;;21.17;15.87;;;;;;;22.90;69.21;99659.63;5061362;28;20851;-80
2021/07/13 07:46:42;;;;;;;17.00;15.30;;;;;;;22.94;69.11;99660.81;5058669;28;20577;-79
2021/07/13 07:49:09;;;;;;;17.10;15.40;;;;;;;22.99;69.14;99671.00;5060618;28;20496;-80
2021/07/13 07:51:36;;;;;;;16.70;15.20;;;;;;;23.06;68.70;99669.84;5059875;28;20488;-78
2021/07/13 07:54:03;;;;;;;17.17;15.43;;;;;;;22.89;69.55;99669.69;5060754;28;20479;-79
2021/07/13 07:56:29;;;;;;;16.80;15.30;;;;;;;22.77;70.41;99679.75;5060552;28;20596;-79
2021/07/13 07:58:56;;;;;;;17.47;15.67;;;;;;;22.65;70.13;99677.00;5061088;28;20476;-79
2021/07/13 08:01:24;;;;;;;19.37;15.90;;;;;;;22.55;71.06;99669.41;5059856;28;20477;-80
2021/07/13 08:03:51;;;;;;;18.33;16.57;;;;;;;22.70;70.56;99662.66;5060068;28;20457;-79
2021/07/13 08:06:17;;;;;;;20.07;17.37;;;;;;;22.70;70.34;99665.41;5050748;28;20499;-79
2021/07/13 08:08:44;;;;;;;20.20;18.20;;;;;;;22.67;70.75;99660.41;5040014;28;20493;-80
2021/07/13 08:11:12;;;;;;;20.23;17.20;;;;;;;22.50;71.25;99652.94;5040283;28;20573;-79
2021/07/13 08:13:38;;;;;;;21.53;17.20;;;;;;;22.44;71.52;99659.31;5040889;28;20419;-81
2021/07/13 08:16:06;;;;;;;20.50;18.40;;;;;;;22.52;71.31;99652.69;5040372;28;20541;-79
2021/07/13 08:18:34;;;;;;;20.87;18.60;;;;;;;22.63;71.06;99653.78;5040797;28;20943;-80
2021/07/13 08:21:00;;;;;;;20.07;17.80;;;;;;;22.87;70.41;99647.28;5039629;28;20501;-80
2021/07/13 08:23:27;;;;;;;19.30;17.10;;;;;;;22.78;70.68;99651.44;5040858;28;20442;-80
2021/07/13 08:25:54;;;;;;;24.87;18.87;;;;;;;22.76;71.17;99659.03;5037025;28;21202;-80
2021/07/13 08:28:21;;;;;;;20.60;18.30;;;;;;;22.88;70.61;99659.84;5040039;28;20496;-79
2021/07/13 08:30:47;;;;;;;20.60;17.93;;;;;;;23.07;70.34;99659.75;5046097;28;20529;-79
2021/07/13 08:33:14;;;;;;;19.50;17.20;;;;;;;23.26;69.83;99661.31;5056501;28;20495;-79
2021/07/13 08:35:42;;;;;;;21.23;17.93;;;;;;;23.41;69.53;99671.72;5050359;28;21005;-82
2021/07/13 08:38:08;;;;;;;20.03;18.03;;;;;;;23.50;69.54;99674.91;5059971;28;20445;-81
2021/07/13 08:40:35;;;;;;;18.97;17.07;;;;;;;23.62;69.26;99667.53;5058924;28;20473;-79
2021/07/13 08:43:02;;;;;;;19.17;16.37;;;;;;;23.91;68.11;99670.34;5060396;28;20433;-81
2021/07/13 08:45:29;;;;;;;17.40;15.57;;;;;;;24.06;67.47;99673.38;5057353;28;20496;-80
2021/07/13 08:47:55;;;;;;;16.83;15.27;;;;;;;23.57;68.30;99680.22;5043505;28;20495;-80
2021/07/13 08:50:22;;;;;;;15.77;14.27;;;;;;;23.78;67.61;99681.47;5039414;28;20458;-79
2021/07/13 08:52:50;;;;;;;15.87;14.20;;;;;;;24.05;66.07;99676.34;5040267;28;20490;-79
2021/07/13 08:55:18;;;;;;;15.80;14.17;;;;;;;24.18;66.36;99678.78;5049359;28;20438;-80
2021/07/13 08:57:45;;;;;;;14.93;13.40;;;;;;;24.39;65.25;99681.88;5061552;28;20537;-81
2021/07/13 09:00:14;;;;;;;16.43;14.10;;;;;;;24.19;65.70;99676.88;5061125;28;20541;-78
2021/07/13 09:03:05;;;;;;;14.73;13.10;;;;;;;24.34;65.01;99673.56;5061255;28;20437;-77
2021/07/13 09:05:40;;;;;;;13.73;12.30;;;;;;;24.10;65.16;99670.16;5058501;28;20473;-77
2021/07/13 09:08:13;;;;;;;15.27;13.13;;;;;;;24.34;65.43;99668.09;5059460;28;20483;-75
2021/07/13 09:10:39;;;;;;;13.60;12.23;;;;;;;24.47;63.96;99662.34;5058289;28;20493;-77
2021/07/13 09:13:06;;;;;;;12.73;11.43;;;;;;;24.58;64.10;99666.09;5060160;28;20465;-76
2021/07/13 09:15:33;;;;;;;13.70;11.57;;;;;;;24.65;64.05;99664.06;5057341;28;20500;-76
2021/07/13 09:17:59;;;;;;;15.10;12.30;;;;;;;24.71;64.06;99664.97;5058017;28;20453;-76
2021/07/13 09:20:27;;;;;;;15.57;13.93;;;;;;;24.94;63.32;99666.69;5057510;28;20743;-76
2021/07/13 09:22:59;;;;;;;14.43;12.87;;;;;;;24.72;63.85;99672.94;5058648;28;20441;-76
2021/07/13 09:25:34;;;;;;;13.87;12.60;;;;;;;25.00;62.69;99671.19;5054229;28;20476;-76
2021/07/13 09:28:08;;;;;;;15.17;13.67;;;;;;;25.02;62.66;99666.28;5058331;28;20488;-76
2021/07/13 09:30:36;;;;;;;13.67;12.30;;;;;;;24.98;61.77;99678.78;5058316;28;20905;-76
2021/07/13 09:33:24;;;;;;;15.53;13.93;;;;;;;24.83;63.31;99679.38;5058974;28;20457;-76
2021/07/13 09:36:03;;;;;;;14.40;12.60;;;;;;;24.54;62.67;99675.88;5047095;28;21010;-76
2021/07/13 09:38:30;;;;;;;14.83;13.20;;;;;;;24.65;62.70;99680.47;5038114;28;20461;-76
2021/07/13 09:41:07;;;;;;;15.33;12.70;;;;;;;24.74;62.85;99689.09;5038375;28;20581;-76
2021/07/13 09:44:00;;;;;;;15.33;13.47;;;;;;;24.52;62.70;99678.81;5050108;28;20447;-76
2021/07/13 09:46:32;;;;;;;16.10;14.40;;;;;;;24.40;63.99;99673.41;5043838;28;20481;-76
2021/07/13 09:49:11;;;;;;;15.30;13.77;;;;;;;24.54;64.58;99678.63;5037977;28;20542;-76
2021/07/13 09:51:38;;;;;;;17.20;15.40;;;;;;;24.21;65.63;99681.00;5050497;28;20480;-77
2021/07/13 09:54:05;;;;;;;14.20;12.90;;;;;;;24.06;65.71;99678.81;5042515;28;20446;-77
2021/07/13 09:56:40;;;;;;;15.87;14.30;;;;;;;24.31;65.51;99683.09;5050312;28;21197;-76
2021/07/13 09:59:07;;;;;;;16.93;15.30;;;;;;;24.42;66.02;99684.09;5057888;28;20476;-76
2021/07/13 10:01:33;;;;;;;18.20;16.03;;;;;;;24.49;66.36;99678.50;5057622;28;20465;-76
2021/07/13 10:04:01;;;;;;;18.07;16.33;;;;;;;24.68;65.27;99684.59;5058736;28;20492;-76
2021/07/13 10:06:29;;;;;;;18.40;16.53;;;;;;;24.67;64.99;99689.25;5046988;28;20501;-76
2021/07/13 10:08:57;;;;;;;16.40;14.90;;;;;;;24.83;64.50;99684.84;5038505;28;20482;-76
2021/07/13 10:11:24;;;;;;;17.23;15.33;;;;;;;24.93;64.66;99675.97;5047652;28;20481;-76
2021/07/13 10:13:52;;;;;;;18.60;16.90;;;;;;;24.92;64.50;99685.25;5059276;28;20504;-76
2021/07/13 10:16:19;;;;;;;19.20;17.40;;;;;;;24.75;65.29;99686.06;5057525;28;20505;-76
2021/07/13 10:18:46;;;;;;;19.77;17.70;;;;;;;24.70;65.61;99690.63;5058701;28;20457;-76
2021/07/13 10:21:12;;;;;;;19.83;18.03;;;;;;;24.71;65.56;99686.84;5058380;28;20485;-76
2021/07/13 10:23:39;;;;;;;20.17;17.97;;;;;;;24.56;65.65;99681.94;5046782;28;20461;-76
2021/07/13 10:26:07;;;;;;;23.60;19.23;;;;;;;24.55;65.60;99672.09;5038151;28;20488;-76
2021/07/13 10:28:34;;;;;;;20.00;18.00;;;;;;;24.81;64.98;99676.91;5038276;28;20707;-76
2021/07/13 10:31:02;;;;;;;20.30;18.40;;;;;;;24.84;65.49;99666.53;5045426;28;20828;-76
2021/07/13 10:33:35;;;;;;;20.33;18.30;;;;;;;25.22;65.11;99668.47;5059222;28;20472;-76
2021/07/13 10:36:32;;;;;;;21.43;19.57;;;;;;;25.80;64.13;99663.53;5056343;28;20963;-76
2021/07/13 10:39:30;;;;;;;21.47;19.20;;;;;;;25.86;63.38;99669.88;5034724;28;20453;-76
2021/07/13 10:41:58;;;;;;;20.00;18.10;;;;;;;26.88;61.72;99685.75;5034649;28;20474;-76
2021/07/13 10:44:40;;;;;;;19.07;17.23;;;;;;;27.57;58.90;99674.69;5035261;28;20419;-76
2021/07/13 10:47:30;;;;;;;19.37;17.47;;;;;;;28.02;57.66;99682.56;5031514;28;20959;-76
2021/07/13 10:50:30;;;;;;;18.37;16.67;;;;;;;27.93;57.53;99682.28;5032626;28;20943;-76
2021/07/13 10:52:58;;;;;;;19.17;17.33;;;;;;;27.13;58.93;99685.09;5012943;28;20494;-75
2021/07/13 10:55:48;;;;;;;21.10;18.90;;;;;;;26.60;60.53;99677.53;5024599;28;20458;-76
2021/07/13 10:58:30;;;;;;;17.40;15.57;;;;;;;25.95;60.76;99682.06;5033893;28;20516;-75
2021/07/13 11:01:04;;;;;;;16.90;15.27;;;;;;;25.65;61.07;99680.59;5036391;28;20501;-75
2021/07/13 11:03:52;;;;;;;18.17;16.27;;;;;;;25.94;62.10;99688.66;5038947;28;20646;-75
2021/07/13 11:06:20;;;;;;;17.87;15.37;;;;;;;26.29;60.22;99688.19;5037060;28;20482;-75
2021/07/13 11:08:50;;;;;;;15.17;13.70;;;;;;;26.17;58.55;99679.31;5039257;28;20482;-75
2021/07/13 11:11:35;;;;;;;15.87;14.50;;;;;;;26.03;59.50;99676.16;5036989;28;20549;-75
2021/07/13 11:14:03;;;;;;;15.53;14.20;;;;;;;25.89;60.95;99677.59;5058093;28;20517;-75
2021/07/13 11:16:31;;;;;;;16.70;15.17;;;;;;;25.56;62.02;99682.94;5060354;28;20477;-75
2021/07/13 11:19:01;;;;;;;18.93;17.13;;;;;;;25.55;62.32;99681.31;5061640;28;20491;-75
2021/07/13 11:21:29;;;;;;;18.93;17.13;;;;;;;25.65;61.65;99679.78;5060048;28;20504;-75
2021/07/13 11:23:57;;;;;;;16.47;15.03;;;;;;;25.81;61.28;99675.31;5061425;28;20452;-75
2021/07/13 11:26:25;;;;;;;17.77;15.97;;;;;;;25.66;61.45;99673.22;5060579;28;20511;-74
2021/07/13 11:28:55;;;;;;;17.87;16.07;;;;;;;25.21;63.36;99669.56;5059572;28;21017;-75
2021/07/13 11:31:23;;;;;;;17.97;15.93;;;;;;;25.28;63.45;99680.38;5060864;28;20473;-75